createdAt,value
2019-02-24T00:04:54.388Z,101812.45
2019-02-24T00:09:57.370Z,101798.78
2019-02-24T00:15:00.353Z,101805.12
2019-02-24T00:20:03.412Z,101788.72
2019-02-24T00:25:06.404Z,101786.91
2019-02-24T00:30:09.384Z,101785.07
2019-02-24T00:35:12.339Z,101786.59
2019-02-24T00:40:15.385Z,101779.89
2019-02-24T00:45:18.375Z,101766.68
2019-02-24T00:50:21.593Z,101771.92
2019-02-24T00:55:24.569Z,101758.45
2019-02-24T01:00:27.704Z,101756.44
2019-02-24T01:05:31.010Z,101752.92
2019-02-24T01:10:33.958Z,101759.80
2019-02-24T01:15:36.955Z,101758.20
2019-02-24T01:20:39.976Z,101760.16
2019-02-24T01:25:42.966Z,101748.49
2019-02-24T01:30:46.013Z,101747.15
2019-02-24T01:35:49.180Z,101742.53
2019-02-24T01:40:52.215Z,101735.12
2019-02-24T01:45:55.718Z,101733.29
2019-02-24T01:50:58.629Z,101716.95
2019-02-24T01:56:01.740Z,101713.27
2019-02-24T02:01:04.721Z,101705.28
2019-02-24T02:06:07.929Z,101683.94
2019-02-24T02:11:11.113Z,101678.80
2019-02-24T02:16:14.376Z,101672.19
2019-02-24T02:21:17.558Z,101663.33
2019-02-24T02:26:20.703Z,101650.23
2019-02-24T02:31:23.686Z,101657.67
2019-02-24T02:36:26.715Z,101649.48
2019-02-24T02:41:30.200Z,101648.20
2019-02-24T02:46:33.205Z,101638.50
2019-02-24T02:51:36.176Z,101629.52
2019-02-24T02:56:39.307Z,101633.77
2019-02-24T03:01:42.410Z,101614.61
2019-02-24T03:06:57.684Z,101614.77
2019-02-24T03:12:00.977Z,101616.60
2019-02-24T03:17:04.117Z,101607.19
2019-02-24T03:22:07.509Z,101627.55
2019-02-24T03:27:10.519Z,101633.87
2019-02-24T03:32:13.469Z,101646.30
2019-02-24T03:37:16.460Z,101637.53
2019-02-24T03:42:19.430Z,101638.60
2019-02-24T03:47:22.566Z,101630.32
2019-02-24T03:52:25.602Z,101607.31
2019-02-24T03:57:28.662Z,101614.32
2019-02-24T04:02:31.822Z,101618.48
2019-02-24T04:07:34.951Z,101617.75
2019-02-24T04:12:37.933Z,101614.84
2019-02-24T04:17:41.161Z,101620.03
2019-02-24T04:22:44.471Z,101611.72
2019-02-24T04:27:47.859Z,101594.67
2019-02-24T04:32:50.967Z,101605.50
2019-02-24T04:37:53.976Z,101608.65
2019-02-24T04:42:56.903Z,101596.80
2019-02-24T04:47:59.953Z,101589.56
2019-02-24T04:53:05.678Z,101591.41
2019-02-24T04:58:08.711Z,101588.19
2019-02-24T05:03:11.689Z,101588.78
2019-02-24T05:08:15.257Z,101574.79
2019-02-24T05:13:18.259Z,101560.30
2019-02-24T05:18:21.369Z,101568.45
2019-02-24T05:23:24.322Z,101549.86
2019-02-24T05:28:27.322Z,101557.93
2019-02-24T05:33:30.498Z,101570.06
2019-02-24T05:38:33.432Z,101571.27
2019-02-24T05:43:36.617Z,101569.52
2019-02-24T05:48:39.965Z,101572.39
2019-02-24T05:53:43.188Z,101562.86
2019-02-24T05:58:46.166Z,101567.14
2019-02-24T06:03:49.475Z,101572.57
2019-02-24T06:08:52.526Z,101575.91
2019-02-24T06:13:55.585Z,101594.12
2019-02-24T06:18:58.697Z,101584.97
2019-02-24T06:24:01.664Z,101565.99
2019-02-24T06:29:04.643Z,101556.39
2019-02-24T06:34:07.789Z,101547.09
2019-02-24T06:39:11.065Z,101549.89
2019-02-24T06:44:14.015Z,101548.09
2019-02-24T06:49:17.082Z,101550.38
2019-02-24T06:54:20.092Z,101554.73
2019-02-24T06:59:23.439Z,101552.16
2019-02-24T07:04:26.412Z,101548.94
2019-02-24T07:09:29.395Z,101540.10
2019-02-24T07:14:32.488Z,101531.96
2019-02-24T07:19:35.420Z,101540.12
2019-02-24T07:24:38.595Z,101531.02
2019-02-24T07:29:41.686Z,101532.89
2019-02-24T07:34:44.878Z,101517.57
2019-02-24T07:39:48.077Z,101511.81
2019-02-24T07:44:51.176Z,101513.27
2019-02-24T07:49:54.265Z,101518.77
2019-02-24T07:54:57.233Z,101512.92
2019-02-24T08:00:00.358Z,101512.63
2019-02-24T08:05:03.625Z,101514.70
2019-02-24T08:10:07.274Z,101524.30
2019-02-24T08:15:10.367Z,101517.38
2019-02-24T08:20:13.325Z,101504.75
2019-02-24T08:25:16.270Z,101516.72
2019-02-24T08:30:19.525Z,101523.20
2019-02-24T08:35:22.568Z,101505.56
2019-02-24T08:40:25.609Z,101519.86
2019-02-24T08:45:28.591Z,101507.06
2019-02-24T08:50:31.685Z,101495.89
2019-02-24T08:55:34.627Z,101508.63
2019-02-24T09:00:37.858Z,101508.36
2019-02-24T09:05:40.944Z,101519.80
2019-02-24T09:10:44.005Z,101527.60
2019-02-24T09:15:46.956Z,101517.46
2019-02-24T09:20:50.048Z,101521.27
2019-02-24T09:25:53.065Z,101522.10
2019-02-24T09:31:00.874Z,101515.05
2019-02-24T09:36:01.331Z,101521.19
2019-02-24T09:41:04.565Z,101523.27
2019-02-24T09:46:07.627Z,101532.02
2019-02-24T09:51:10.593Z,101536.08
2019-02-24T09:56:13.524Z,101527.28
2019-02-24T10:01:16.488Z,101528.31
2019-02-24T10:06:19.477Z,101533.96
2019-02-24T10:11:22.468Z,101526.44
2019-02-24T10:16:25.559Z,101521.93
2019-02-24T10:21:28.622Z,101533.23
2019-02-24T10:26:31.722Z,101531.46
2019-02-24T10:31:34.679Z,101531.65
2019-02-24T10:36:37.902Z,101527.38
2019-02-24T10:41:40.849Z,101519.30
2019-02-24T10:46:44.023Z,101521.05
2019-02-24T10:51:47.136Z,101517.92
2019-02-24T10:56:50.102Z,101507.08
2019-02-24T11:01:53.282Z,101499.80
2019-02-24T11:06:56.287Z,101486.83
2019-02-24T11:11:59.354Z,101488.86
2019-02-24T11:17:02.398Z,101491.42
2019-02-24T11:22:05.470Z,101481.14
2019-02-24T11:27:08.545Z,101478.55
2019-02-24T11:32:11.678Z,101463.53
2019-02-24T11:37:14.761Z,101458.84
2019-02-24T11:42:17.730Z,101449.12
2019-02-24T11:47:20.762Z,101435.62
2019-02-24T11:52:23.720Z,101437.14
2019-02-24T11:57:27.091Z,101428.93
2019-02-24T12:02:34.444Z,101426.16
2019-02-24T12:07:35.192Z,101429.45
2019-02-24T12:12:38.283Z,101426.66
2019-02-24T12:17:41.312Z,101417.83
2019-02-24T12:22:44.707Z,101408.00
2019-02-24T12:27:47.698Z,101406.68
2019-02-24T12:32:50.977Z,101405.25
2019-02-24T12:37:53.936Z,101402.44
2019-02-24T12:42:57.104Z,101399.17
2019-02-24T12:48:00.439Z,101388.80
2019-02-24T12:53:03.787Z,101382.69
2019-02-24T12:58:07.523Z,101374.09
2019-02-24T13:03:10.700Z,101365.92
2019-02-24T13:08:13.672Z,101362.34
2019-02-24T13:13:16.618Z,101367.22
2019-02-24T13:18:19.601Z,101360.80
2019-02-24T13:23:22.617Z,101354.25
2019-02-24T13:28:25.614Z,101349.28
2019-02-24T13:33:28.872Z,101351.55
2019-02-24T13:38:31.848Z,101352.59
2019-02-24T13:43:34.889Z,101352.13
2019-02-24T13:48:38.107Z,101340.25
2019-02-24T13:53:41.382Z,101327.04
2019-02-24T13:58:44.530Z,101318.25
2019-02-24T14:03:47.590Z,101322.14
2019-02-24T14:08:50.620Z,101307.89
2019-02-24T14:13:53.595Z,101319.86
2019-02-24T14:18:56.674Z,101326.62
2019-02-24T14:23:59.718Z,101329.59
2019-02-24T14:29:02.706Z,101332.21
2019-02-24T14:34:06.222Z,101329.49
2019-02-24T14:39:09.247Z,101330.94
2019-02-24T14:44:12.621Z,101339.76
2019-02-24T14:49:15.659Z,101349.27
2019-02-24T14:54:18.672Z,101342.25
2019-02-24T14:59:22.186Z,101340.36
2019-02-24T15:04:25.628Z,101326.70
2019-02-24T15:09:28.641Z,101332.98
2019-02-24T15:14:31.723Z,101318.13
2019-02-24T15:19:35.150Z,101324.56
2019-02-24T15:24:38.247Z,101315.78
2019-02-24T15:29:41.443Z,101323.02
2019-02-24T15:34:44.466Z,101314.34
2019-02-24T15:39:47.513Z,101306.28
2019-02-24T15:44:50.500Z,101302.94
2019-02-24T15:49:53.604Z,101310.44
2019-02-24T15:54:56.866Z,101311.74
2019-02-24T16:00:00.224Z,101330.50
2019-02-24T16:05:03.930Z,101316.14
2019-02-24T16:10:10.009Z,101318.62
2019-02-24T16:15:14.474Z,101318.51
2019-02-24T16:20:21.559Z,101297.35
2019-02-24T16:25:24.587Z,101301.15
2019-02-24T16:30:27.829Z,101305.91
2019-02-24T16:35:30.957Z,101293.20
2019-02-24T16:40:33.961Z,101302.94
2019-02-24T16:45:37.373Z,101310.77
2019-02-24T16:50:40.454Z,101315.88
2019-02-24T16:55:43.574Z,101319.09
2019-02-24T17:00:46.555Z,101331.55
2019-02-24T17:05:49.758Z,101328.11
2019-02-24T17:10:52.720Z,101315.53
2019-02-24T17:15:56.001Z,101324.06
2019-02-24T17:20:59.089Z,101318.23
2019-02-24T17:26:02.088Z,101323.19
2019-02-24T17:31:07.017Z,101315.47
2019-02-24T17:36:10.361Z,101316.80
2019-02-24T17:41:13.436Z,101308.70
2019-02-24T17:46:16.955Z,101307.40
2019-02-24T17:51:21.548Z,101310.03
2019-02-24T17:56:25.022Z,101314.44
2019-02-24T18:01:28.236Z,101321.91
2019-02-24T18:06:31.471Z,101323.69
2019-02-24T18:11:34.488Z,101333.42
2019-02-24T18:16:37.544Z,101338.05
2019-02-24T18:21:40.667Z,101331.52
2019-02-24T18:26:43.796Z,101327.60
2019-02-24T18:31:46.796Z,101321.76
2019-02-24T18:36:50.129Z,101319.74
2019-02-24T18:41:53.195Z,101319.36
2019-02-24T18:46:56.264Z,101327.45
2019-02-24T18:51:59.411Z,101333.39
2019-02-24T18:57:02.428Z,101331.87
2019-02-24T19:02:05.519Z,101332.53
2019-02-24T19:07:08.640Z,101336.56
2019-02-24T19:12:11.716Z,101325.20
2019-02-24T19:17:14.879Z,101330.12
2019-02-24T19:22:17.956Z,101328.05
2019-02-24T19:27:20.903Z,101325.64
2019-02-24T19:32:24.054Z,101330.62
2019-02-24T19:37:27.043Z,101325.05
2019-02-24T19:42:30.178Z,101334.43
2019-02-24T19:47:33.156Z,101335.37
2019-02-24T19:52:36.163Z,101328.45
2019-02-24T19:57:39.333Z,101321.34
2019-02-24T20:02:42.545Z,101321.30
2019-02-24T20:07:45.744Z,101310.74
2019-02-24T20:12:48.734Z,101330.95
2019-02-24T20:17:51.794Z,101321.41
2019-02-24T20:22:54.793Z,101323.19
2019-02-24T20:27:58.517Z,101340.76
2019-02-24T20:33:01.642Z,101346.96
2019-02-24T20:38:05.386Z,101344.00
2019-02-24T20:43:08.537Z,101343.84
2019-02-24T20:48:11.527Z,101346.09
2019-02-24T20:53:14.595Z,101335.95
2019-02-24T20:58:17.999Z,101324.81
2019-02-24T21:03:22.573Z,101314.56
2019-02-24T21:08:25.806Z,101317.48
2019-02-24T21:13:29.176Z,101322.87
2019-02-24T21:18:32.406Z,101324.16
2019-02-24T21:23:35.488Z,101331.20
2019-02-24T21:28:38.617Z,101319.59
2019-02-24T21:33:41.631Z,101322.79
2019-02-24T21:38:44.794Z,101331.98
2019-02-24T21:43:47.885Z,101337.75
2019-02-24T21:48:50.937Z,101338.14
2019-02-24T21:53:54.915Z,101338.37
2019-02-24T21:58:57.921Z,101344.43
2019-02-24T22:04:00.932Z,101340.78
2019-02-24T22:09:06.601Z,101323.80
2019-02-24T22:14:09.790Z,101320.34
2019-02-24T22:19:12.802Z,101323.42
2019-02-24T22:24:15.978Z,101326.67
2019-02-24T22:29:18.972Z,101333.56
2019-02-24T22:34:21.963Z,101337.02
2019-02-24T22:39:25.008Z,101338.10
2019-02-24T22:44:28.117Z,101330.97
2019-02-24T22:49:31.226Z,101325.64
2019-02-24T22:54:34.245Z,101325.14
2019-02-24T22:59:37.470Z,101301.75
2019-02-24T23:04:40.744Z,101312.33
2019-02-24T23:09:43.960Z,101311.37
2019-02-24T23:14:46.957Z,101302.92
2019-02-24T23:19:50.065Z,101305.20
2019-02-24T23:24:53.040Z,101317.80
2019-02-24T23:29:56.068Z,101318.88
2019-02-24T23:34:59.133Z,101323.12
2019-02-24T23:40:02.450Z,101323.37
2019-02-24T23:45:10.180Z,101331.91
2019-02-24T23:50:11.093Z,101316.22
2019-02-24T23:55:14.069Z,101310.61
